map of KCPU home
KCPU - Airport
Location
City:  San Andreas, California, United States
Name:Calaveras Co-Maury Rasmussen Field
ICAO:KCPU
FAA LID:CPU

Details
Type:Airport (Airfield)
Use:Public/Civil
Latitude:3808'46"N (38.146111)
Longitude:12038'53"W (-120.648166)
Datum:WGS 1984
Elevation:1328 ft (405 m)
Variation:13.30E (WMM2015 magnetic declination)
-0.10 annual change
Runways:1
Longest:3603 × 60 ft (1098 × 18.5 m), paved

Time
Time Zone:UTC-8 (DST-7)
Local Time:

Weather
METAR:KCPU 201115Z AUTO 00000KT 10SM OVC080 09/07 A3010 RMK AO2 T00930065

Related Locations
Nearby:
Farthest:FTU: 11276 mi / 18147 km
Tolagnaro [Maurillac Airport (Fort Dauphin Airport)], MG

Find:

   beyond  
but within

Other Information
Maps:
NOTAMs:
Links:
Sources:

  
flag of United States
flag of California
  

Sectional Chart

Flight Planning
at skyvector.com

Satellite Image

Google Maps Satellite view

 

Copyright © 2004-2017 Karl L. Swartz. All rights reserved.
The Great Circle Mapper name and logo are trademarks of the Great Circle Mapper.
All other trademarks mentioned herein belong to their respective owners.
Please see credits for attibutions and further copyright information.

  Follow gcmap on Facebook Follow gcmap on Twitter Follow gcmap on Google+ GCmap on LinkedIn

hCard Microformat

Geo Microformat